Terminal Aerodrome Forecast
Issued by NWS

Home | Current Version | Previous Version | Text Only | Print | Product List | Glossary On
Versions: 1 2 3 4 5 6 7 8 9 10 11 12 13 14 15 16 17
708
FTUS43 KLSX 240645 AAA
TAFCPS
TAF AMD
KCPS 240645Z 2407/2506 16009KT P6SM BKN007
     FM241000 17010KT P6SM BKN020
     FM241200 19010KT P6SM SCT040 BKN070
     FM241800 22012KT P6SM SCT040 BKN250
     FM250100 18007KT P6SM SCT050=

USA.gov is the U.S. government's official web portal to all federal, state and local government web resources and services.